sensor_id;sensor_type;location;lat;lon;timestamp;P1;durP1;ratioP1;P2;durP2;ratioP2
7359;SDS011;3720;48.274;7.796;2023-11-21T00:01:02;7.90;;;1.67;;
7359;SDS011;3720;48.274;7.796;2023-11-21T00:03:34;5.57;;;1.55;;
7359;SDS011;3720;48.274;7.796;2023-11-21T00:06:07;6.75;;;1.67;;
7359;SDS011;3720;48.274;7.796;2023-11-21T00:08:39;8.75;;;2.00;;
7359;SDS011;3720;48.274;7.796;2023-11-21T00:11:11;6.70;;;1.80;;
7359;SDS011;3720;48.274;7.796;2023-11-21T00:13:44;7.93;;;1.90;;
7359;SDS011;3720;48.274;7.796;2023-11-21T00:16:16;9.27;;;1.65;;
7359;SDS011;3720;48.274;7.796;2023-11-21T00:18:48;8.60;;;1.95;;
7359;SDS011;3720;48.274;7.796;2023-11-21T00:21:21;10.18;;;1.63;;
7359;SDS011;3720;48.274;7.796;2023-11-21T00:23:53;9.05;;;1.65;;
7359;SDS011;3720;48.274;7.796;2023-11-21T00:26:24;9.07;;;1.70;;
7359;SDS011;3720;48.274;7.796;2023-11-21T00:28:58;9.25;;;1.67;;
7359;SDS011;3720;48.274;7.796;2023-11-21T00:31:29;8.40;;;2.00;;
7359;SDS011;3720;48.274;7.796;2023-11-21T00:34:02;7.90;;;1.90;;
7359;SDS011;3720;48.274;7.796;2023-11-21T00:36:35;9.27;;;2.03;;
7359;SDS011;3720;48.274;7.796;2023-11-21T00:39:07;6.93;;;1.92;;
7359;SDS011;3720;48.274;7.796;2023-11-21T00:41:39;8.43;;;1.90;;
7359;SDS011;3720;48.274;7.796;2023-11-21T00:44:12;9.98;;;2.17;;
7359;SDS011;3720;48.274;7.796;2023-11-21T00:46:44;9.85;;;2.10;;
7359;SDS011;3720;48.274;7.796;2023-11-21T00:49:15;7.45;;;1.73;;
7359;SDS011;3720;48.274;7.796;2023-11-21T00:51:47;7.45;;;1.75;;
7359;SDS011;3720;48.274;7.796;2023-11-21T00:54:19;7.38;;;1.60;;
7359;SDS011;3720;48.274;7.796;2023-11-21T00:56:51;7.28;;;1.85;;
7359;SDS011;3720;48.274;7.796;2023-11-21T00:59:24;6.50;;;1.70;;
7359;SDS011;3720;48.274;7.796;2023-11-21T01:01:56;10.85;;;1.85;;
7359;SDS011;3720;48.274;7.796;2023-11-21T01:04:30;8.70;;;1.85;;
7359;SDS011;3720;48.274;7.796;2023-11-21T01:07:02;9.32;;;1.90;;
7359;SDS011;3720;48.274;7.796;2023-11-21T01:09:35;10.77;;;1.90;;
7359;SDS011;3720;48.274;7.796;2023-11-21T01:12:07;8.55;;;1.83;;
7359;SDS011;3720;48.274;7.796;2023-11-21T01:14:40;8.63;;;1.95;;
7359;SDS011;3720;48.274;7.796;2023-11-21T01:17:12;5.80;;;1.73;;
7359;SDS011;3720;48.274;7.796;2023-11-21T01:19:45;6.28;;;1.70;;
7359;SDS011;3720;48.274;7.796;2023-11-21T01:22:16;11.80;;;1.90;;
7359;SDS011;3720;48.274;7.796;2023-11-21T01:24:52;6.28;;;1.63;;
7359;SDS011;3720;48.274;7.796;2023-11-21T01:27:24;9.02;;;1.85;;
7359;SDS011;3720;48.274;7.796;2023-11-21T01:29:58;9.25;;;1.65;;
7359;SDS011;3720;48.274;7.796;2023-11-21T01:32:29;7.35;;;1.60;;
7359;SDS011;3720;48.274;7.796;2023-11-21T01:35:01;5.45;;;1.27;;
7359;SDS011;3720;48.274;7.796;2023-11-21T01:37:36;5.05;;;1.70;;
7359;SDS011;3720;48.274;7.796;2023-11-21T01:40:08;5.72;;;1.40;;
7359;SDS011;3720;48.274;7.796;2023-11-21T01:42:43;7.43;;;1.50;;
7359;SDS011;3720;48.274;7.796;2023-11-21T01:45:18;7.78;;;1.75;;
7359;SDS011;3720;48.274;7.796;2023-11-21T01:47:50;7.45;;;1.50;;
7359;SDS011;3720;48.274;7.796;2023-11-21T01:50:22;6.30;;;1.60;;
7359;SDS011;3720;48.274;7.796;2023-11-21T01:52:55;6.18;;;1.45;;
7359;SDS011;3720;48.274;7.796;2023-11-21T01:55:27;8.07;;;1.45;;
7359;SDS011;3720;48.274;7.796;2023-11-21T01:57:59;8.73;;;1.75;;
7359;SDS011;3720;48.274;7.796;2023-11-21T02:00:33;8.32;;;1.70;;
7359;SDS011;3720;48.274;7.796;2023-11-21T02:03:05;7.07;;;1.50;;
7359;SDS011;3720;48.274;7.796;2023-11-21T02:05:37;8.90;;;1.40;;
7359;SDS011;3720;48.274;7.796;2023-11-21T02:08:09;7.95;;;1.48;;
7359;SDS011;3720;48.274;7.796;2023-11-21T02:10:41;4.22;;;1.13;;
7359;SDS011;3720;48.274;7.796;2023-11-21T02:13:13;4.30;;;1.20;;
7359;SDS011;3720;48.274;7.796;2023-11-21T02:15:48;4.28;;;1.25;;
7359;SDS011;3720;48.274;7.796;2023-11-21T02:18:22;4.43;;;1.15;;
7359;SDS011;3720;48.274;7.796;2023-11-21T02:20:55;4.57;;;1.20;;
7359;SDS011;3720;48.274;7.796;2023-11-21T02:23:28;3.60;;;0.90;;
7359;SDS011;3720;48.274;7.796;2023-11-21T02:26:00;6.45;;;1.20;;
7359;SDS011;3720;48.274;7.796;2023-11-21T02:28:34;3.88;;;1.05;;
7359;SDS011;3720;48.274;7.796;2023-11-21T02:31:06;4.93;;;1.20;;
7359;SDS011;3720;48.274;7.796;2023-11-21T02:33:38;2.47;;;1.00;;
7359;SDS011;3720;48.274;7.796;2023-11-21T02:36:09;4.32;;;1.05;;
7359;SDS011;3720;48.274;7.796;2023-11-21T02:38:43;3.78;;;1.05;;
7359;SDS011;3720;48.274;7.796;2023-11-21T02:41:15;3.28;;;0.90;;
7359;SDS011;3720;48.274;7.796;2023-11-21T02:43:47;3.65;;;1.08;;
7359;SDS011;3720;48.274;7.796;2023-11-21T02:46:19;5.65;;;1.17;;
7359;SDS011;3720;48.274;7.796;2023-11-21T02:48:51;4.32;;;0.95;;
7359;SDS011;3720;48.274;7.796;2023-11-21T02:51:24;3.92;;;0.85;;
7359;SDS011;3720;48.274;7.796;2023-11-21T02:53:57;4.68;;;0.88;;
7359;SDS011;3720;48.274;7.796;2023-11-21T02:56:30;3.38;;;0.95;;
7359;SDS011;3720;48.274;7.796;2023-11-21T02:59:03;4.07;;;1.20;;
7359;SDS011;3720;48.274;7.796;2023-11-21T03:01:34;3.47;;;0.90;;
7359;SDS011;3720;48.274;7.796;2023-11-21T03:04:06;4.88;;;1.00;;
7359;SDS011;3720;48.274;7.796;2023-11-21T03:06:38;4.22;;;1.10;;
7359;SDS011;3720;48.274;7.796;2023-11-21T03:09:11;5.45;;;1.13;;
7359;SDS011;3720;48.274;7.796;2023-11-21T03:11:43;4.00;;;1.40;;
7359;SDS011;3720;48.274;7.796;2023-11-21T03:14:15;5.07;;;1.10;;
7359;SDS011;3720;48.274;7.796;2023-11-21T03:16:47;4.60;;;0.93;;
7359;SDS011;3720;48.274;7.796;2023-11-21T03:19:19;5.15;;;0.82;;
7359;SDS011;3720;48.274;7.796;2023-11-21T03:21:51;6.25;;;1.00;;
7359;SDS011;3720;48.274;7.796;2023-11-21T03:24:24;3.95;;;1.15;;
7359;SDS011;3720;48.274;7.796;2023-11-21T03:26:56;4.65;;;1.10;;
7359;SDS011;3720;48.274;7.796;2023-11-21T03:29:28;2.88;;;0.80;;
7359;SDS011;3720;48.274;7.796;2023-11-21T03:32:00;4.18;;;1.00;;
7359;SDS011;3720;48.274;7.796;2023-11-21T03:34:32;4.15;;;1.00;;
7359;SDS011;3720;48.274;7.796;2023-11-21T03:37:04;5.78;;;1.10;;
7359;SDS011;3720;48.274;7.796;2023-11-21T03:39:37;3.03;;;0.82;;
7359;SDS011;3720;48.274;7.796;2023-11-21T03:42:09;2.50;;;0.90;;
7359;SDS011;3720;48.274;7.796;2023-11-21T03:44:40;7.50;;;1.20;;
7359;SDS011;3720;48.274;7.796;2023-11-21T03:47:12;4.55;;;1.00;;
7359;SDS011;3720;48.274;7.796;2023-11-21T03:49:44;6.85;;;1.00;;
7359;SDS011;3720;48.274;7.796;2023-11-21T03:52:16;3.83;;;1.10;;
7359;SDS011;3720;48.274;7.796;2023-11-21T03:54:50;3.28;;;1.00;;
7359;SDS011;3720;48.274;7.796;2023-11-21T03:57:21;3.75;;;1.08;;
7359;SDS011;3720;48.274;7.796;2023-11-21T03:59:53;4.97;;;1.10;;
7359;SDS011;3720;48.274;7.796;2023-11-21T04:02:25;5.93;;;1.10;;
7359;SDS011;3720;48.274;7.796;2023-11-21T04:04:58;3.60;;;0.80;;
7359;SDS011;3720;48.274;7.796;2023-11-21T04:07:30;5.32;;;1.08;;
7359;SDS011;3720;48.274;7.796;2023-11-21T04:10:03;3.25;;;0.90;;
7359;SDS011;3720;48.274;7.796;2023-11-21T04:12:37;4.80;;;1.13;;
7359;SDS011;3720;48.274;7.796;2023-11-21T04:15:10;6.78;;;1.10;;
7359;SDS011;3720;48.274;7.796;2023-11-21T04:17:43;3.65;;;0.90;;
7359;SDS011;3720;48.274;7.796;2023-11-21T04:20:15;3.63;;;1.00;;
7359;SDS011;3720;48.274;7.796;2023-11-21T04:22:47;3.53;;;0.85;;
7359;SDS011;3720;48.274;7.796;2023-11-21T04:25:20;5.38;;;1.10;;
7359;SDS011;3720;48.274;7.796;2023-11-21T04:27:53;7.50;;;1.25;;
7359;SDS011;3720;48.274;7.796;2023-11-21T04:30:25;2.22;;;0.90;;
7359;SDS011;3720;48.274;7.796;2023-11-21T04:32:56;3.47;;;1.10;;
7359;SDS011;3720;48.274;7.796;2023-11-21T04:35:28;3.58;;;1.23;;
7359;SDS011;3720;48.274;7.796;2023-11-21T04:38:00;5.28;;;1.30;;
7359;SDS011;3720;48.274;7.796;2023-11-21T04:40:34;3.28;;;0.93;;
7359;SDS011;3720;48.274;7.796;2023-11-21T04:43:06;3.47;;;1.00;;
7359;SDS011;3720;48.274;7.796;2023-11-21T04:45:37;4.63;;;1.20;;
7359;SDS011;3720;48.274;7.796;2023-11-21T04:48:11;3.95;;;1.00;;
7359;SDS011;3720;48.274;7.796;2023-11-21T04:50:43;4.45;;;0.98;;
7359;SDS011;3720;48.274;7.796;2023-11-21T04:53:14;5.18;;;1.10;;
7359;SDS011;3720;48.274;7.796;2023-11-21T04:55:48;2.83;;;1.00;;
7359;SDS011;3720;48.274;7.796;2023-11-21T04:58:19;4.25;;;0.85;;
7359;SDS011;3720;48.274;7.796;2023-11-21T05:00:51;3.30;;;1.05;;
7359;SDS011;3720;48.274;7.796;2023-11-21T05:03:23;4.03;;;0.80;;
7359;SDS011;3720;48.274;7.796;2023-11-21T05:05:56;3.40;;;0.90;;
7359;SDS011;3720;48.274;7.796;2023-11-21T05:08:27;4.60;;;1.00;;
7359;SDS011;3720;48.274;7.796;2023-11-21T05:11:01;2.88;;;0.85;;
7359;SDS011;3720;48.274;7.796;2023-11-21T05:13:33;5.28;;;1.00;;
7359;SDS011;3720;48.274;7.796;2023-11-21T05:16:05;2.50;;;0.80;;
7359;SDS011;3720;48.274;7.796;2023-11-21T05:18:38;4.75;;;1.00;;
7359;SDS011;3720;48.274;7.796;2023-11-21T05:21:10;3.35;;;1.15;;
7359;SDS011;3720;48.274;7.796;2023-11-21T05:23:42;3.08;;;1.00;;
7359;SDS011;3720;48.274;7.796;2023-11-21T05:26:16;2.97;;;1.00;;
7359;SDS011;3720;48.274;7.796;2023-11-21T05:28:48;4.50;;;1.20;;
7359;SDS011;3720;48.274;7.796;2023-11-21T05:31:20;4.03;;;1.17;;
7359;SDS011;3720;48.274;7.796;2023-11-21T05:33:51;5.40;;;1.52;;
7359;SDS011;3720;48.274;7.796;2023-11-21T05:36:23;4.53;;;1.60;;
7359;SDS011;3720;48.274;7.796;2023-11-21T05:38:55;2.60;;;1.58;;
7359;SDS011;3720;48.274;7.796;2023-11-21T05:41:28;4.55;;;1.48;;
7359;SDS011;3720;48.274;7.796;2023-11-21T05:44:00;5.30;;;1.50;;
7359;SDS011;3720;48.274;7.796;2023-11-21T05:46:32;3.05;;;1.38;;
7359;SDS011;3720;48.274;7.796;2023-11-21T05:49:04;2.20;;;1.20;;
7359;SDS011;3720;48.274;7.796;2023-11-21T05:51:38;7.10;;;1.40;;
7359;SDS011;3720;48.274;7.796;2023-11-21T05:54:10;3.63;;;1.40;;
7359;SDS011;3720;48.274;7.796;2023-11-21T05:56:43;4.72;;;1.20;;
7359;SDS011;3720;48.274;7.796;2023-11-21T05:59:15;4.00;;;1.20;;
7359;SDS011;3720;48.274;7.796;2023-11-21T06:01:46;1.77;;;1.00;;
7359;SDS011;3720;48.274;7.796;2023-11-21T06:04:18;3.25;;;1.05;;
7359;SDS011;3720;48.274;7.796;2023-11-21T06:06:54;5.63;;;1.30;;
7359;SDS011;3720;48.274;7.796;2023-11-21T06:09:25;5.55;;;1.20;;
7359;SDS011;3720;48.274;7.796;2023-11-21T06:11:59;3.47;;;1.15;;
7359;SDS011;3720;48.274;7.796;2023-11-21T06:14:31;3.50;;;1.20;;
7359;SDS011;3720;48.274;7.796;2023-11-21T06:17:05;3.78;;;1.17;;
7359;SDS011;3720;48.274;7.796;2023-11-21T06:19:36;2.75;;;1.00;;
7359;SDS011;3720;48.274;7.796;2023-11-21T06:22:08;2.85;;;1.33;;
7359;SDS011;3720;48.274;7.796;2023-11-21T06:24:40;3.60;;;2.10;;
7359;SDS011;3720;48.274;7.796;2023-11-21T06:27:14;6.05;;;2.45;;
7359;SDS011;3720;48.274;7.796;2023-11-21T06:29:46;3.85;;;2.08;;
7359;SDS011;3720;48.274;7.796;2023-11-21T06:32:18;6.15;;;1.77;;
7359;SDS011;3720;48.274;7.796;2023-11-21T06:34:50;2.70;;;1.40;;
7359;SDS011;3720;48.274;7.796;2023-11-21T06:37:24;2.65;;;1.23;;
7359;SDS011;3720;48.274;7.796;2023-11-21T06:39:57;2.92;;;1.10;;
7359;SDS011;3720;48.274;7.796;2023-11-21T06:42:30;2.72;;;1.20;;
7359;SDS011;3720;48.274;7.796;2023-11-21T06:45:03;3.15;;;1.10;;
7359;SDS011;3720;48.274;7.796;2023-11-21T06:47:36;5.57;;;1.33;;
7359;SDS011;3720;48.274;7.796;2023-11-21T06:50:08;2.55;;;1.17;;
7359;SDS011;3720;48.274;7.796;2023-11-21T06:52:40;2.58;;;1.40;;
7359;SDS011;3720;48.274;7.796;2023-11-21T06:55:13;2.55;;;1.23;;
7359;SDS011;3720;48.274;7.796;2023-11-21T06:57:47;2.30;;;1.30;;
7359;SDS011;3720;48.274;7.796;2023-11-21T07:00:19;1.70;;;1.00;;
7359;SDS011;3720;48.274;7.796;2023-11-21T07:02:51;5.70;;;1.58;;
7359;SDS011;3720;48.274;7.796;2023-11-21T07:05:22;2.50;;;1.20;;
7359;SDS011;3720;48.274;7.796;2023-11-21T07:07:54;2.38;;;1.27;;
7359;SDS011;3720;48.274;7.796;2023-11-21T07:10:26;3.25;;;1.42;;
7359;SDS011;3720;48.274;7.796;2023-11-21T07:12:59;2.47;;;1.55;;
7359;SDS011;3720;48.274;7.796;2023-11-21T07:15:31;3.38;;;1.50;;
7359;SDS011;3720;48.274;7.796;2023-11-21T07:18:04;3.22;;;1.90;;
7359;SDS011;3720;48.274;7.796;2023-11-21T07:20:37;4.13;;;1.63;;
7359;SDS011;3720;48.274;7.796;2023-11-21T07:23:09;3.70;;;1.77;;
7359;SDS011;3720;48.274;7.796;2023-11-21T07:25:41;3.03;;;1.50;;
7359;SDS011;3720;48.274;7.796;2023-11-21T07:28:15;2.55;;;1.40;;
7359;SDS011;3720;48.274;7.796;2023-11-21T07:30:47;3.88;;;1.40;;
7359;SDS011;3720;48.274;7.796;2023-11-21T07:33:18;2.05;;;1.40;;
7359;SDS011;3720;48.274;7.796;2023-11-21T07:35:51;2.95;;;1.42;;
7359;SDS011;3720;48.274;7.796;2023-11-21T07:38:23;3.70;;;1.45;;
7359;SDS011;3720;48.274;7.796;2023-11-21T07:40:55;2.45;;;1.33;;
7359;SDS011;3720;48.274;7.796;2023-11-21T07:43:28;3.08;;;1.40;;
7359;SDS011;3720;48.274;7.796;2023-11-21T07:46:05;3.97;;;1.67;;
7359;SDS011;3720;48.274;7.796;2023-11-21T07:48:37;4.35;;;1.60;;
7359;SDS011;3720;48.274;7.796;2023-11-21T07:51:11;5.60;;;1.90;;
7359;SDS011;3720;48.274;7.796;2023-11-21T07:53:43;4.45;;;1.70;;
7359;SDS011;3720;48.274;7.796;2023-11-21T07:56:15;3.92;;;1.50;;
7359;SDS011;3720;48.274;7.796;2023-11-21T07:58:49;3.35;;;1.45;;
7359;SDS011;3720;48.274;7.796;2023-11-21T08:01:21;4.30;;;1.90;;
7359;SDS011;3720;48.274;7.796;2023-11-21T08:03:53;5.57;;;2.75;;
7359;SDS011;3720;48.274;7.796;2023-11-21T08:06:27;9.55;;;3.58;;
7359;SDS011;3720;48.274;7.796;2023-11-21T08:08:58;6.75;;;2.70;;
7359;SDS011;3720;48.274;7.796;2023-11-21T08:11:30;6.20;;;2.42;;
7359;SDS011;3720;48.274;7.796;2023-11-21T08:14:04;5.20;;;2.67;;
7359;SDS011;3720;48.274;7.796;2023-11-21T08:16:36;5.55;;;2.78;;
7359;SDS011;3720;48.274;7.796;2023-11-21T08:19:08;4.05;;;2.33;;
7359;SDS011;3720;48.274;7.796;2023-11-21T08:21:41;7.32;;;2.28;;
7359;SDS011;3720;48.274;7.796;2023-11-21T08:24:13;6.45;;;2.38;;
7359;SDS011;3720;48.274;7.796;2023-11-21T08:26:44;4.88;;;2.10;;
7359;SDS011;3720;48.274;7.796;2023-11-21T08:29:17;4.78;;;2.08;;
7359;SDS011;3720;48.274;7.796;2023-11-21T08:31:49;5.63;;;2.13;;
7359;SDS011;3720;48.274;7.796;2023-11-21T08:34:21;4.00;;;2.03;;
7359;SDS011;3720;48.274;7.796;2023-11-21T08:36:54;4.30;;;2.10;;
7359;SDS011;3720;48.274;7.796;2023-11-21T08:39:27;3.63;;;1.70;;
7359;SDS011;3720;48.274;7.796;2023-11-21T08:42:00;3.30;;;1.60;;
7359;SDS011;3720;48.274;7.796;2023-11-21T08:44:34;3.45;;;1.80;;
7359;SDS011;3720;48.274;7.796;2023-11-21T08:47:06;4.90;;;2.20;;
7359;SDS011;3720;48.274;7.796;2023-11-21T08:49:38;4.05;;;1.95;;
7359;SDS011;3720;48.274;7.796;2023-11-21T08:52:10;5.47;;;1.58;;
7359;SDS011;3720;48.274;7.796;2023-11-21T08:54:42;1.80;;;1.33;;
7359;SDS011;3720;48.274;7.796;2023-11-21T08:57:15;3.30;;;1.60;;
7359;SDS011;3720;48.274;7.796;2023-11-21T08:59:48;2.45;;;1.50;;
7359;SDS011;3720;48.274;7.796;2023-11-21T09:02:25;2.08;;;1.27;;
7359;SDS011;3720;48.274;7.796;2023-11-21T09:04:57;3.97;;;1.70;;
7359;SDS011;3720;48.274;7.796;2023-11-21T09:07:29;2.47;;;1.50;;
7359;SDS011;3720;48.274;7.796;2023-11-21T09:10:01;2.58;;;1.55;;
7359;SDS011;3720;48.274;7.796;2023-11-21T09:12:33;4.20;;;1.90;;
7359;SDS011;3720;48.274;7.796;2023-11-21T09:15:08;5.00;;;1.70;;
7359;SDS011;3720;48.274;7.796;2023-11-21T09:17:41;4.70;;;2.10;;
7359;SDS011;3720;48.274;7.796;2023-11-21T09:20:14;3.42;;;2.03;;
7359;SDS011;3720;48.274;7.796;2023-11-21T09:22:46;5.35;;;2.75;;
7359;SDS011;3720;48.274;7.796;2023-11-21T09:25:18;4.80;;;3.17;;
7359;SDS011;3720;48.274;7.796;2023-11-21T09:27:51;4.88;;;3.33;;
7359;SDS011;3720;48.274;7.796;2023-11-21T09:30:24;5.72;;;3.30;;
7359;SDS011;3720;48.274;7.796;2023-11-21T09:32:56;5.47;;;3.10;;
7359;SDS011;3720;48.274;7.796;2023-11-21T09:35:28;5.90;;;2.67;;
7359;SDS011;3720;48.274;7.796;2023-11-21T09:38:00;4.32;;;2.80;;
7359;SDS011;3720;48.274;7.796;2023-11-21T09:40:35;2.70;;;1.88;;
7359;SDS011;3720;48.274;7.796;2023-11-21T09:43:08;3.20;;;1.50;;
7359;SDS011;3720;48.274;7.796;2023-11-21T09:45:54;3.75;;;2.15;;
7359;SDS011;3720;48.274;7.796;2023-11-21T09:48:40;2.90;;;1.58;;
7359;SDS011;3720;48.274;7.796;2023-11-21T09:51:12;3.72;;;1.45;;
7359;SDS011;3720;48.274;7.796;2023-11-21T09:53:46;1.55;;;1.25;;
7359;SDS011;3720;48.274;7.796;2023-11-21T09:56:22;3.05;;;1.70;;
7359;SDS011;3720;48.274;7.796;2023-11-21T09:58:56;3.00;;;2.00;;
7359;SDS011;3720;48.274;7.796;2023-11-21T10:01:30;3.15;;;2.00;;
7359;SDS011;3720;48.274;7.796;2023-11-21T10:04:03;4.32;;;2.00;;
7359;SDS011;3720;48.274;7.796;2023-11-21T10:06:41;3.03;;;1.80;;
7359;SDS011;3720;48.274;7.796;2023-11-21T10:09:13;4.50;;;1.80;;
7359;SDS011;3720;48.274;7.796;2023-11-21T10:11:46;4.13;;;1.88;;
7359;SDS011;3720;48.274;7.796;2023-11-21T10:14:20;3.25;;;2.17;;
7359;SDS011;3720;48.274;7.796;2023-11-21T10:17:00;5.18;;;2.10;;
7359;SDS011;3720;48.274;7.796;2023-11-21T10:19:32;4.40;;;2.53;;
7359;SDS011;3720;48.274;7.796;2023-11-21T10:22:04;4.13;;;1.95;;
7359;SDS011;3720;48.274;7.796;2023-11-21T10:24:37;4.03;;;2.28;;
7359;SDS011;3720;48.274;7.796;2023-11-21T10:27:09;5.65;;;2.40;;
7359;SDS011;3720;48.274;7.796;2023-11-21T10:29:41;4.07;;;2.50;;
7359;SDS011;3720;48.274;7.796;2023-11-21T10:32:15;4.43;;;2.70;;
7359;SDS011;3720;48.274;7.796;2023-11-21T10:34:55;5.55;;;2.70;;
7359;SDS011;3720;48.274;7.796;2023-11-21T10:37:27;6.15;;;2.72;;
7359;SDS011;3720;48.274;7.796;2023-11-21T10:39:59;5.38;;;2.50;;
7359;SDS011;3720;48.274;7.796;2023-11-21T10:42:31;5.55;;;2.42;;
7359;SDS011;3720;48.274;7.796;2023-11-21T10:45:04;5.57;;;2.50;;
7359;SDS011;3720;48.274;7.796;2023-11-21T10:47:44;3.22;;;2.15;;
7359;SDS011;3720;48.274;7.796;2023-11-21T10:50:16;3.55;;;2.30;;
7359;SDS011;3720;48.274;7.796;2023-11-21T10:52:50;4.10;;;2.60;;
7359;SDS011;3720;48.274;7.796;2023-11-21T10:55:22;7.25;;;2.63;;
7359;SDS011;3720;48.274;7.796;2023-11-21T10:57:55;3.38;;;2.50;;
7359;SDS011;3720;48.274;7.796;2023-11-21T11:00:29;3.95;;;2.50;;
7359;SDS011;3720;48.274;7.796;2023-11-21T11:03:03;3.70;;;2.63;;
7359;SDS011;3720;48.274;7.796;2023-11-21T11:05:35;4.05;;;3.03;;
7359;SDS011;3720;48.274;7.796;2023-11-21T11:08:08;4.07;;;3.05;;
7359;SDS011;3720;48.274;7.796;2023-11-21T11:10:42;6.07;;;3.70;;
7359;SDS011;3720;48.274;7.796;2023-11-21T11:13:16;7.50;;;5.00;;
7359;SDS011;3720;48.274;7.796;2023-11-21T11:15:48;5.05;;;4.00;;
7359;SDS011;3720;48.274;7.796;2023-11-21T11:18:22;5.30;;;3.05;;
7359;SDS011;3720;48.274;7.796;2023-11-21T11:20:54;6.25;;;3.60;;
7359;SDS011;3720;48.274;7.796;2023-11-21T11:23:32;3.97;;;3.22;;
7359;SDS011;3720;48.274;7.796;2023-11-21T11:26:18;4.10;;;3.20;;
7359;SDS011;3720;48.274;7.796;2023-11-21T11:29:01;4.40;;;3.45;;
7359;SDS011;3720;48.274;7.796;2023-11-21T11:31:40;4.10;;;3.47;;
7359;SDS011;3720;48.274;7.796;2023-11-21T11:34:29;4.28;;;3.30;;
7359;SDS011;3720;48.274;7.796;2023-11-21T11:37:03;3.80;;;3.40;;
7359;SDS011;3720;48.274;7.796;2023-11-21T11:39:38;5.70;;;3.78;;
7359;SDS011;3720;48.274;7.796;2023-11-21T11:42:14;5.05;;;4.00;;
7359;SDS011;3720;48.274;7.796;2023-11-21T11:44:47;5.47;;;3.88;;
7359;SDS011;3720;48.274;7.796;2023-11-21T11:47:25;5.60;;;3.88;;
7359;SDS011;3720;48.274;7.796;2023-11-21T11:50:05;4.70;;;3.80;;
7359;SDS011;3720;48.274;7.796;2023-11-21T11:52:43;6.63;;;3.72;;
7359;SDS011;3720;48.274;7.796;2023-11-21T11:55:17;7.97;;;4.60;;
7359;SDS011;3720;48.274;7.796;2023-11-21T11:57:50;5.05;;;3.83;;
7359;SDS011;3720;48.274;7.796;2023-11-21T12:00:23;3.72;;;3.15;;
7359;SDS011;3720;48.274;7.796;2023-11-21T12:03:07;3.38;;;3.05;;
7359;SDS011;3720;48.274;7.796;2023-11-21T12:05:41;4.00;;;3.03;;
7359;SDS011;3720;48.274;7.796;2023-11-21T12:08:15;3.55;;;2.65;;
7359;SDS011;3720;48.274;7.796;2023-11-21T12:10:47;3.55;;;2.65;;
7359;SDS011;3720;48.274;7.796;2023-11-21T12:13:20;4.35;;;2.50;;
7359;SDS011;3720;48.274;7.796;2023-11-21T12:15:53;4.78;;;2.70;;
7359;SDS011;3720;48.274;7.796;2023-11-21T12:18:25;4.32;;;2.80;;
7359;SDS011;3720;48.274;7.796;2023-11-21T12:20:59;4.30;;;3.20;;
7359;SDS011;3720;48.274;7.796;2023-11-21T12:23:30;4.75;;;3.22;;
7359;SDS011;3720;48.274;7.796;2023-11-21T12:26:02;4.43;;;3.10;;
7359;SDS011;3720;48.274;7.796;2023-11-21T12:28:35;3.97;;;3.28;;
7359;SDS011;3720;48.274;7.796;2023-11-21T12:31:06;5.00;;;3.30;;
7359;SDS011;3720;48.274;7.796;2023-11-21T12:33:39;5.13;;;3.50;;
7359;SDS011;3720;48.274;7.796;2023-11-21T12:36:12;4.18;;;3.40;;
7359;SDS011;3720;48.274;7.796;2023-11-21T12:38:44;5.78;;;3.80;;
7359;SDS011;3720;48.274;7.796;2023-11-21T12:41:16;5.95;;;3.83;;
7359;SDS011;3720;48.274;7.796;2023-11-21T12:43:48;5.32;;;3.50;;
7359;SDS011;3720;48.274;7.796;2023-11-21T12:46:20;4.28;;;3.20;;
7359;SDS011;3720;48.274;7.796;2023-11-21T12:48:52;5.22;;;3.55;;
7359;SDS011;3720;48.274;7.796;2023-11-21T12:51:25;4.88;;;3.67;;
7359;SDS011;3720;48.274;7.796;2023-11-21T12:53:57;4.88;;;3.95;;
7359;SDS011;3720;48.274;7.796;2023-11-21T12:56:29;4.85;;;3.83;;
7359;SDS011;3720;48.274;7.796;2023-11-21T12:59:01;4.22;;;3.28;;
7359;SDS011;3720;48.274;7.796;2023-11-21T13:01:34;3.75;;;2.78;;
7359;SDS011;3720;48.274;7.796;2023-11-21T13:04:07;13.40;;;9.05;;
7359;SDS011;3720;48.274;7.796;2023-11-21T13:06:42;7.55;;;5.10;;
7359;SDS011;3720;48.274;7.796;2023-11-21T13:09:14;7.28;;;4.28;;
7359;SDS011;3720;48.274;7.796;2023-11-21T13:11:52;6.50;;;3.92;;
7359;SDS011;3720;48.274;7.796;2023-11-21T13:14:33;5.53;;;3.15;;
7359;SDS011;3720;48.274;7.796;2023-11-21T13:17:05;6.30;;;3.60;;
7359;SDS011;3720;48.274;7.796;2023-11-21T13:19:37;6.18;;;3.90;;
7359;SDS011;3720;48.274;7.796;2023-11-21T13:22:10;6.72;;;4.60;;
7359;SDS011;3720;48.274;7.796;2023-11-21T13:24:42;5.80;;;3.83;;
7359;SDS011;3720;48.274;7.796;2023-11-21T13:27:14;4.72;;;3.40;;
7359;SDS011;3720;48.274;7.796;2023-11-21T13:29:46;6.95;;;5.20;;
7359;SDS011;3720;48.274;7.796;2023-11-21T13:32:17;11.05;;;7.38;;
7359;SDS011;3720;48.274;7.796;2023-11-21T13:34:50;9.10;;;6.43;;
7359;SDS011;3720;48.274;7.796;2023-11-21T13:37:25;6.15;;;4.63;;
7359;SDS011;3720;48.274;7.796;2023-11-21T13:39:58;5.47;;;3.83;;
7359;SDS011;3720;48.274;7.796;2023-11-21T13:42:30;4.05;;;3.30;;
7359;SDS011;3720;48.274;7.796;2023-11-21T13:45:02;5.55;;;4.30;;
7359;SDS011;3720;48.274;7.796;2023-11-21T13:47:35;6.60;;;4.35;;
7359;SDS011;3720;48.274;7.796;2023-11-21T13:50:08;4.57;;;3.50;;
7359;SDS011;3720;48.274;7.796;2023-11-21T13:52:48;4.82;;;3.42;;
7359;SDS011;3720;48.274;7.796;2023-11-21T13:55:21;5.07;;;2.95;;
7359;SDS011;3720;48.274;7.796;2023-11-21T13:57:55;3.67;;;2.53;;
7359;SDS011;3720;48.274;7.796;2023-11-21T14:00:27;3.53;;;2.92;;
7359;SDS011;3720;48.274;7.796;2023-11-21T14:03:12;4.18;;;2.70;;
7359;SDS011;3720;48.274;7.796;2023-11-21T14:05:51;4.05;;;2.88;;
7359;SDS011;3720;48.274;7.796;2023-11-21T14:08:27;6.28;;;4.07;;
7359;SDS011;3720;48.274;7.796;2023-11-21T14:10:59;5.97;;;3.90;;
7359;SDS011;3720;48.274;7.796;2023-11-21T14:13:31;6.78;;;4.35;;
7359;SDS011;3720;48.274;7.796;2023-11-21T14:16:03;12.05;;;5.93;;
7359;SDS011;3720;48.274;7.796;2023-11-21T14:18:36;10.35;;;5.40;;
7359;SDS011;3720;48.274;7.796;2023-11-21T14:21:20;7.63;;;4.20;;
7359;SDS011;3720;48.274;7.796;2023-11-21T14:23:53;6.65;;;4.35;;
7359;SDS011;3720;48.274;7.796;2023-11-21T14:26:25;7.03;;;4.65;;
7359;SDS011;3720;48.274;7.796;2023-11-21T14:28:59;6.88;;;4.80;;
7359;SDS011;3720;48.274;7.796;2023-11-21T14:31:31;6.15;;;4.20;;
7359;SDS011;3720;48.274;7.796;2023-11-21T14:34:03;4.93;;;3.70;;
7359;SDS011;3720;48.274;7.796;2023-11-21T14:36:36;4.97;;;3.00;;
7359;SDS011;3720;48.274;7.796;2023-11-21T14:39:10;4.13;;;2.30;;
7359;SDS011;3720;48.274;7.796;2023-11-21T14:41:53;3.80;;;2.28;;
7359;SDS011;3720;48.274;7.796;2023-11-21T14:44:28;3.70;;;2.42;;
7359;SDS011;3720;48.274;7.796;2023-11-21T14:47:05;3.35;;;1.90;;
7359;SDS011;3720;48.274;7.796;2023-11-21T14:49:44;3.80;;;2.60;;
7359;SDS011;3720;48.274;7.796;2023-11-21T14:52:22;3.90;;;2.75;;
7359;SDS011;3720;48.274;7.796;2023-11-21T14:55:05;3.55;;;2.80;;
7359;SDS011;3720;48.274;7.796;2023-11-21T14:57:51;2.90;;;1.77;;
7359;SDS011;3720;48.274;7.796;2023-11-21T15:00:23;3.05;;;1.80;;
7359;SDS011;3720;48.274;7.796;2023-11-21T15:03:14;4.00;;;2.08;;
7359;SDS011;3720;48.274;7.796;2023-11-21T15:06:04;4.03;;;2.03;;
7359;SDS011;3720;48.274;7.796;2023-11-21T15:08:49;4.40;;;2.67;;
7359;SDS011;3720;48.274;7.796;2023-11-21T15:11:39;5.45;;;3.15;;
7359;SDS011;3720;48.274;7.796;2023-11-21T15:14:12;9.68;;;6.05;;
7359;SDS011;3720;48.274;7.796;2023-11-21T15:16:50;11.93;;;7.50;;
7359;SDS011;3720;48.274;7.796;2023-11-21T15:19:23;7.95;;;5.22;;
7359;SDS011;3720;48.274;7.796;2023-11-21T15:21:56;7.57;;;4.20;;
7359;SDS011;3720;48.274;7.796;2023-11-21T15:24:28;5.55;;;3.72;;
7359;SDS011;3720;48.274;7.796;2023-11-21T15:27:01;5.95;;;3.40;;
7359;SDS011;3720;48.274;7.796;2023-11-21T15:29:33;5.35;;;3.10;;
7359;SDS011;3720;48.274;7.796;2023-11-21T15:32:05;5.50;;;3.40;;
7359;SDS011;3720;48.274;7.796;2023-11-21T15:34:38;5.55;;;3.80;;
7359;SDS011;3720;48.274;7.796;2023-11-21T15:37:10;6.10;;;3.78;;
7359;SDS011;3720;48.274;7.796;2023-11-21T15:39:42;6.18;;;4.00;;
7359;SDS011;3720;48.274;7.796;2023-11-21T15:42:16;6.03;;;4.63;;
7359;SDS011;3720;48.274;7.796;2023-11-21T15:44:48;4.60;;;3.88;;
7359;SDS011;3720;48.274;7.796;2023-11-21T15:47:21;4.82;;;3.80;;
7359;SDS011;3720;48.274;7.796;2023-11-21T15:49:53;4.22;;;3.10;;
7359;SDS011;3720;48.274;7.796;2023-11-21T15:52:25;6.88;;;4.10;;